sensor_id;sensor_type;location;lat;lon;timestamp;pressure;altitude;pressure_sealevel;temperature;humidity
47985;BME280;33753;52.912;-7.342;2023-02-01T00:01:47;101361.97;;;5.11;100.00
47985;BME280;33753;52.912;-7.342;2023-02-01T00:04:15;101364.53;;;5.13;100.00
47985;BME280;33753;52.912;-7.342;2023-02-01T00:06:44;101367.19;;;5.13;100.00
47985;BME280;33753;52.912;-7.342;2023-02-01T00:09:12;101360.59;;;5.06;100.00
47985;BME280;33753;52.912;-7.342;2023-02-01T00:11:42;101360.31;;;4.97;100.00
47985;BME280;33753;52.912;-7.342;2023-02-01T00:14:10;101362.25;;;4.95;100.00
47985;BME280;33753;52.912;-7.342;2023-02-01T00:16:38;101357.63;;;4.97;100.00
47985;BME280;33753;52.912;-7.342;2023-02-01T00:19:06;101362.25;;;4.95;100.00
47985;BME280;33753;52.912;-7.342;2023-02-01T00:21:35;101362.00;;;4.98;100.00
47985;BME280;33753;52.912;-7.342;2023-02-01T00:24:03;101369.56;;;4.93;100.00
47985;BME280;33753;52.912;-7.342;2023-02-01T00:26:32;101367.72;;;4.94;100.00
47985;BME280;33753;52.912;-7.342;2023-02-01T00:29:04;101365.25;;;4.91;100.00
47985;BME280;33753;52.912;-7.342;2023-02-01T00:31:33;101369.25;;;4.85;100.00
47985;BME280;33753;52.912;-7.342;2023-02-01T00:34:01;101361.94;;;4.87;100.00
47985;BME280;33753;52.912;-7.342;2023-02-01T00:36:30;101364.22;;;4.80;100.00
47985;BME280;33753;52.912;-7.342;2023-02-01T00:38:58;101363.09;;;4.72;100.00
47985;BME280;33753;52.912;-7.342;2023-02-01T00:41:26;101356.13;;;4.69;100.00
47985;BME280;33753;52.912;-7.342;2023-02-01T00:43:54;101346.69;;;4.63;100.00
47985;BME280;33753;52.912;-7.342;2023-02-01T00:46:24;101349.47;;;4.62;100.00
47985;BME280;33753;52.912;-7.342;2023-02-01T00:48:53;101347.03;;;4.59;100.00
47985;BME280;33753;52.912;-7.342;2023-02-01T00:51:22;101341.25;;;4.52;100.00
47985;BME280;33753;52.912;-7.342;2023-02-01T00:53:50;101354.88;;;4.49;100.00
47985;BME280;33753;52.912;-7.342;2023-02-01T00:56:18;101348.03;;;4.45;100.00
47985;BME280;33753;52.912;-7.342;2023-02-01T00:58:47;101341.91;;;4.43;100.00
47985;BME280;33753;52.912;-7.342;2023-02-01T01:01:16;101352.59;;;4.43;100.00
47985;BME280;33753;52.912;-7.342;2023-02-01T01:03:47;101352.41;;;4.46;100.00
47985;BME280;33753;52.912;-7.342;2023-02-01T01:06:18;101345.78;;;4.39;100.00
47985;BME280;33753;52.912;-7.342;2023-02-01T01:08:47;101349.75;;;4.46;100.00
47985;BME280;33753;52.912;-7.342;2023-02-01T01:11:16;101347.78;;;4.48;100.00
47985;BME280;33753;52.912;-7.342;2023-02-01T01:13:45;101337.31;;;4.45;100.00
47985;BME280;33753;52.912;-7.342;2023-02-01T01:16:14;101339.03;;;4.46;100.00
47985;BME280;33753;52.912;-7.342;2023-02-01T01:18:42;101340.81;;;4.45;100.00
47985;BME280;33753;52.912;-7.342;2023-02-01T01:21:13;101346.06;;;4.47;100.00
47985;BME280;33753;52.912;-7.342;2023-02-01T01:23:41;101342.88;;;4.42;100.00
47985;BME280;33753;52.912;-7.342;2023-02-01T01:26:11;101340.94;;;4.44;100.00
47985;BME280;33753;52.912;-7.342;2023-02-01T01:28:40;101332.16;;;4.42;100.00
47985;BME280;33753;52.912;-7.342;2023-02-01T01:31:09;101332.16;;;4.42;100.00
47985;BME280;33753;52.912;-7.342;2023-02-01T01:33:37;101331.19;;;4.43;100.00
47985;BME280;33753;52.912;-7.342;2023-02-01T01:36:06;101326.59;;;4.45;100.00
47985;BME280;33753;52.912;-7.342;2023-02-01T01:38:38;101313.19;;;4.45;100.00
47985;BME280;33753;52.912;-7.342;2023-02-01T01:41:07;101309.63;;;4.44;100.00
47985;BME280;33753;52.912;-7.342;2023-02-01T01:43:53;101319.50;;;4.44;100.00
47985;BME280;33753;52.912;-7.342;2023-02-01T01:46:24;101312.88;;;4.37;100.00
47985;BME280;33753;52.912;-7.342;2023-02-01T01:49:06;101318.47;;;4.33;100.00
47985;BME280;33753;52.912;-7.342;2023-02-01T01:51:37;101312.56;;;4.28;100.00
47985;BME280;33753;52.912;-7.342;2023-02-01T01:54:09;101303.81;;;4.26;100.00
47985;BME280;33753;52.912;-7.342;2023-02-01T01:56:40;101307.44;;;4.25;100.00
47985;BME280;33753;52.912;-7.342;2023-02-01T01:59:08;101304.75;;;4.25;100.00
47985;BME280;33753;52.912;-7.342;2023-02-01T02:01:37;101304.75;;;4.25;100.00
47985;BME280;33753;52.912;-7.342;2023-02-01T02:04:05;101304.53;;;4.28;100.00
47985;BME280;33753;52.912;-7.342;2023-02-01T02:06:36;101308.59;;;4.34;100.00
47985;BME280;33753;52.912;-7.342;2023-02-01T02:09:05;101298.31;;;4.41;100.00
47985;BME280;33753;52.912;-7.342;2023-02-01T02:11:35;101278.13;;;4.48;100.00
47985;BME280;33753;52.912;-7.342;2023-02-01T02:14:03;101297.19;;;4.56;100.00
47985;BME280;33753;52.912;-7.342;2023-02-01T02:16:40;101304.25;;;4.57;100.00
47985;BME280;33753;52.912;-7.342;2023-02-01T02:19:17;101293.34;;;4.60;100.00
47985;BME280;33753;52.912;-7.342;2023-02-01T02:21:53;101299.31;;;4.64;100.00
47985;BME280;33753;52.912;-7.342;2023-02-01T02:27:19;101294.34;;;4.71;100.00
47985;BME280;33753;52.912;-7.342;2023-02-01T02:30:02;101292.19;;;4.76;100.00
47985;BME280;33753;52.912;-7.342;2023-02-01T02:35:32;101295.16;;;4.84;100.00
47985;BME280;33753;52.912;-7.342;2023-02-01T02:38:06;101305.09;;;4.95;100.00
47985;BME280;33753;52.912;-7.342;2023-02-01T02:40:41;101303.03;;;4.98;100.00
47985;BME280;33753;52.912;-7.342;2023-02-01T02:43:11;101289.84;;;4.95;100.00
47985;BME280;33753;52.912;-7.342;2023-02-01T02:46:01;101276.91;;;4.89;100.00
47985;BME280;33753;52.912;-7.342;2023-02-01T02:48:58;101287.63;;;4.89;100.00
47985;BME280;33753;52.912;-7.342;2023-02-01T02:51:31;101284.00;;;4.90;100.00
47985;BME280;33753;52.912;-7.342;2023-02-01T02:54:19;101284.44;;;4.84;100.00
47985;BME280;33753;52.912;-7.342;2023-02-01T02:57:07;101278.56;;;4.79;100.00
47985;BME280;33753;52.912;-7.342;2023-02-01T02:59:55;101273.53;;;4.74;100.00
47985;BME280;33753;52.912;-7.342;2023-02-01T03:02:42;101280.72;;;4.74;100.00
47985;BME280;33753;52.912;-7.342;2023-02-01T03:05:31;101278.28;;;4.71;100.00
47985;BME280;33753;52.912;-7.342;2023-02-01T03:08:03;101292.41;;;4.73;100.00
47985;BME280;33753;52.912;-7.342;2023-02-01T03:10:47;101287.81;;;4.75;100.00
47985;BME280;33753;52.912;-7.342;2023-02-01T03:13:18;101286.81;;;4.76;100.00
47985;BME280;33753;52.912;-7.342;2023-02-01T03:15:50;101289.28;;;4.79;100.00
47985;BME280;33753;52.912;-7.342;2023-02-01T03:18:22;101295.63;;;4.78;100.00
47985;BME280;33753;52.912;-7.342;2023-02-01T03:20:54;101290.03;;;4.81;100.00
47985;BME280;33753;52.912;-7.342;2023-02-01T03:23:26;101290.78;;;4.83;100.00
47985;BME280;33753;52.912;-7.342;2023-02-01T03:25:55;101282.50;;;4.86;100.00
47985;BME280;33753;52.912;-7.342;2023-02-01T03:28:25;101279.59;;;4.89;100.00
47985;BME280;33753;52.912;-7.342;2023-02-01T03:30:56;101277.63;;;4.91;100.00
47985;BME280;33753;52.912;-7.342;2023-02-01T03:33:25;101269.59;;;4.91;100.00
47985;BME280;33753;52.912;-7.342;2023-02-01T03:35:56;101257.19;;;4.90;100.00
47985;BME280;33753;52.912;-7.342;2023-02-01T03:38:28;101256.31;;;4.90;100.00
47985;BME280;33753;52.912;-7.342;2023-02-01T03:41:01;101251.59;;;4.93;100.00
47985;BME280;33753;52.912;-7.342;2023-02-01T03:43:33;101253.50;;;4.91;100.00
47985;BME280;33753;52.912;-7.342;2023-02-01T03:46:03;101244.50;;;4.92;100.00
47985;BME280;33753;52.912;-7.342;2023-02-01T03:48:34;101260.59;;;4.92;100.00
47985;BME280;33753;52.912;-7.342;2023-02-01T03:51:04;101264.25;;;4.91;100.00
47985;BME280;33753;52.912;-7.342;2023-02-01T03:53:35;101253.50;;;4.91;100.00
47985;BME280;33753;52.912;-7.342;2023-02-01T03:56:05;101250.34;;;4.86;100.00
47985;BME280;33753;52.912;-7.342;2023-02-01T03:58:34;101241.31;;;4.87;100.00
47985;BME280;33753;52.912;-7.342;2023-02-01T04:01:02;101250.56;;;4.83;100.00
47985;BME280;33753;52.912;-7.342;2023-02-01T04:03:32;101244.81;;;4.76;100.00
47985;BME280;33753;52.912;-7.342;2023-02-01T04:06:00;101251.97;;;4.76;100.00
47985;BME280;33753;52.912;-7.342;2023-02-01T04:08:28;101247.84;;;4.72;100.00
47985;BME280;33753;52.912;-7.342;2023-02-01T04:10:58;101253.41;;;4.68;100.00
47985;BME280;33753;52.912;-7.342;2023-02-01T04:13:26;101251.19;;;4.62;100.00
47985;BME280;33753;52.912;-7.342;2023-02-01T04:15:54;101254.50;;;4.66;100.00
47985;BME280;33753;52.912;-7.342;2023-02-01T04:18:23;101257.31;;;4.64;100.00
47985;BME280;33753;52.912;-7.342;2023-02-01T04:20:51;101261.66;;;4.65;100.00
47985;BME280;33753;52.912;-7.342;2023-02-01T04:23:19;101260.19;;;4.61;100.00
47985;BME280;33753;52.912;-7.342;2023-02-01T04:25:47;101262.13;;;4.59;100.00
47985;BME280;33753;52.912;-7.342;2023-02-01T04:28:17;101263.09;;;4.58;100.00
47985;BME280;33753;52.912;-7.342;2023-02-01T04:30:45;101263.97;;;4.59;100.00
47985;BME280;33753;52.912;-7.342;2023-02-01T04:33:14;101274.69;;;4.59;100.00
47985;BME280;33753;52.912;-7.342;2023-02-01T04:35:42;101273.81;;;4.58;100.00
47985;BME280;33753;52.912;-7.342;2023-02-01T04:38:10;101261.84;;;4.51;100.00
47985;BME280;33753;52.912;-7.342;2023-02-01T04:40:38;101264.41;;;4.53;100.00
47985;BME280;33753;52.912;-7.342;2023-02-01T04:43:06;101266.56;;;4.47;100.00
47985;BME280;33753;52.912;-7.342;2023-02-01T04:45:36;101279.09;;;4.47;100.00
47985;BME280;33753;52.912;-7.342;2023-02-01T04:48:04;101280.81;;;4.48;100.00
47985;BME280;33753;52.912;-7.342;2023-02-01T04:50:32;101272.66;;;4.49;100.00
47985;BME280;33753;52.912;-7.342;2023-02-01T04:53:01;101277.19;;;4.49;100.00
47985;BME280;33753;52.912;-7.342;2023-02-01T04:55:29;101277.69;;;4.54;100.00
47985;BME280;33753;52.912;-7.342;2023-02-01T04:57:57;101277.03;;;4.63;100.00
47985;BME280;33753;52.912;-7.342;2023-02-01T05:00:26;101282.78;;;4.70;100.00
47985;BME280;33753;52.912;-7.342;2023-02-01T05:02:55;101282.34;;;4.76;100.00
47985;BME280;33753;52.912;-7.342;2023-02-01T05:05:23;101278.34;;;4.82;100.00
47985;BME280;33753;52.912;-7.342;2023-02-01T05:07:52;101277.16;;;4.86;100.00
47985;BME280;33753;52.912;-7.342;2023-02-01T05:10:20;101287.63;;;4.89;100.00
47985;BME280;33753;52.912;-7.342;2023-02-01T05:12:49;101271.31;;;4.92;100.00
47985;BME280;33753;52.912;-7.342;2023-02-01T05:15:34;101278.41;;;4.93;100.00
47985;BME280;33753;52.912;-7.342;2023-02-01T05:18:04;101271.97;;;4.96;100.00
47985;BME280;33753;52.912;-7.342;2023-02-01T05:20:32;101267.22;;;4.99;100.00
47985;BME280;33753;52.912;-7.342;2023-02-01T05:23:00;101267.22;;;4.99;100.00
47985;BME280;33753;52.912;-7.342;2023-02-01T05:25:29;101254.53;;;5.01;100.00
47985;BME280;33753;52.912;-7.342;2023-02-01T05:27:57;101260.88;;;5.00;100.00
47985;BME280;33753;52.912;-7.342;2023-02-01T05:30:25;101257.31;;;5.00;100.00
47985;BME280;33753;52.912;-7.342;2023-02-01T05:32:53;101254.75;;;4.98;100.00
47985;BME280;33753;52.912;-7.342;2023-02-01T05:35:23;101250.59;;;4.94;100.00
47985;BME280;33753;52.912;-7.342;2023-02-01T05:37:51;101242.78;;;4.91;100.00
47985;BME280;33753;52.912;-7.342;2023-02-01T05:40:19;101242.56;;;4.94;100.00
47985;BME280;33753;52.912;-7.342;2023-02-01T05:42:48;101240.88;;;4.93;100.00
47985;BME280;33753;52.912;-7.342;2023-02-01T05:45:16;101241.72;;;4.94;100.00
47985;BME280;33753;52.912;-7.342;2023-02-01T05:47:44;101238.06;;;4.95;100.00
47985;BME280;33753;52.912;-7.342;2023-02-01T05:50:13;101233.56;;;4.95;100.00
47985;BME280;33753;52.912;-7.342;2023-02-01T05:52:42;101236.13;;;4.97;100.00
47985;BME280;33753;52.912;-7.342;2023-02-01T05:55:11;101238.44;;;5.01;100.00
47985;BME280;33753;52.912;-7.342;2023-02-01T05:57:39;101232.00;;;5.04;100.00
47985;BME280;33753;52.912;-7.342;2023-02-01T06:00:07;101237.03;;;5.09;100.00
47985;BME280;33753;52.912;-7.342;2023-02-01T06:02:40;101235.44;;;5.06;100.00
47985;BME280;33753;52.912;-7.342;2023-02-01T06:05:09;101235.19;;;5.09;100.00
47985;BME280;33753;52.912;-7.342;2023-02-01T06:07:37;101236.28;;;5.07;100.00
47985;BME280;33753;52.912;-7.342;2023-02-01T06:10:07;101233.47;;;5.08;100.00
47985;BME280;33753;52.912;-7.342;2023-02-01T06:12:35;101244.09;;;5.10;100.00
47985;BME280;33753;52.912;-7.342;2023-02-01T06:15:04;101246.53;;;5.13;100.00
47985;BME280;33753;52.912;-7.342;2023-02-01T06:17:32;101247.75;;;5.20;100.00
47985;BME280;33753;52.912;-7.342;2023-02-01T06:20:00;101242.19;;;5.23;100.00
47985;BME280;33753;52.912;-7.342;2023-02-01T06:22:29;101247.31;;;5.26;100.00
47985;BME280;33753;52.912;-7.342;2023-02-01T06:24:57;101238.31;;;5.27;100.00
47985;BME280;33753;52.912;-7.342;2023-02-01T06:27:26;101243.66;;;5.27;100.00
47985;BME280;33753;52.912;-7.342;2023-02-01T06:29:54;101241.72;;;5.29;100.00
47985;BME280;33753;52.912;-7.342;2023-02-01T06:32:23;101246.84;;;5.32;100.00
47985;BME280;33753;52.912;-7.342;2023-02-01T06:34:51;101244.91;;;5.34;100.00
47985;BME280;33753;52.912;-7.342;2023-02-01T06:37:19;101256.25;;;5.38;100.00
47985;BME280;33753;52.912;-7.342;2023-02-01T06:39:47;101252.59;;;5.39;100.00
47985;BME280;33753;52.912;-7.342;2023-02-01T06:42:16;101243.66;;;5.39;100.00
47985;BME280;33753;52.912;-7.342;2023-02-01T06:44:45;101252.47;;;5.41;100.00
47985;BME280;33753;52.912;-7.342;2023-02-01T06:47:13;101253.84;;;5.46;100.00
47985;BME280;33753;52.912;-7.342;2023-02-01T06:49:42;101255.19;;;5.52;100.00
47985;BME280;33753;52.912;-7.342;2023-02-01T06:52:10;101252.00;;;5.58;100.00
47985;BME280;33753;52.912;-7.342;2023-02-01T06:54:38;101261.41;;;5.64;100.00
47985;BME280;33753;52.912;-7.342;2023-02-01T06:57:06;101267.41;;;5.67;100.00
47985;BME280;33753;52.912;-7.342;2023-02-01T06:59:34;101267.88;;;5.72;100.00
47985;BME280;33753;52.912;-7.342;2023-02-01T07:02:04;101269.47;;;5.75;100.00
47985;BME280;33753;52.912;-7.342;2023-02-01T07:04:32;101262.78;;;5.81;100.00
47985;BME280;33753;52.912;-7.342;2023-02-01T07:07:00;101270.59;;;5.84;100.00
47985;BME280;33753;52.912;-7.342;2023-02-01T07:09:29;101271.09;;;5.89;100.00
47985;BME280;33753;52.912;-7.342;2023-02-01T07:11:57;101268.16;;;5.92;100.00
47985;BME280;33753;52.912;-7.342;2023-02-01T07:14:25;101283.06;;;5.96;100.00
47985;BME280;33753;52.912;-7.342;2023-02-01T07:16:53;101287.97;;;6.02;100.00
47985;BME280;33753;52.912;-7.342;2023-02-01T07:19:22;101282.34;;;6.05;100.00
47985;BME280;33753;52.912;-7.342;2023-02-01T07:21:51;101276.97;;;6.05;100.00
47985;BME280;33753;52.912;-7.342;2023-02-01T07:24:19;101273.31;;;6.07;100.00
47985;BME280;33753;52.912;-7.342;2023-02-01T07:26:47;101274.78;;;6.11;100.00
47985;BME280;33753;52.912;-7.342;2023-02-01T07:29:17;101272.56;;;6.16;100.00
47985;BME280;33753;52.912;-7.342;2023-02-01T07:31:46;101278.81;;;6.16;100.00
47985;BME280;33753;52.912;-7.342;2023-02-01T07:34:14;101280.28;;;6.20;100.00
47985;BME280;33753;52.912;-7.342;2023-02-01T07:36:44;101285.66;;;6.20;100.00
47985;BME280;33753;52.912;-7.342;2023-02-01T07:39:12;101279.19;;;6.23;100.00
47985;BME280;33753;52.912;-7.342;2023-02-01T07:41:40;101282.84;;;6.22;100.00
47985;BME280;33753;52.912;-7.342;2023-02-01T07:44:12;101281.13;;;6.21;100.00
47985;BME280;33753;52.912;-7.342;2023-02-01T07:46:40;101275.50;;;6.24;100.00
47985;BME280;33753;52.912;-7.342;2023-02-01T07:49:10;101272.44;;;6.29;100.00
47985;BME280;33753;52.912;-7.342;2023-02-01T07:51:42;101269.03;;;6.27;100.00
47985;BME280;33753;52.912;-7.342;2023-02-01T07:54:11;101271.34;;;6.31;100.00
47985;BME280;33753;52.912;-7.342;2023-02-01T07:56:40;101277.72;;;6.30;100.00
47985;BME280;33753;52.912;-7.342;2023-02-01T07:59:08;101277.94;;;6.27;100.00
47985;BME280;33753;52.912;-7.342;2023-02-01T08:01:37;101271.59;;;6.28;100.00
47985;BME280;33753;52.912;-7.342;2023-02-01T08:04:05;101279.78;;;6.27;100.00
47985;BME280;33753;52.912;-7.342;2023-02-01T08:06:34;101274.66;;;6.23;100.00
47985;BME280;33753;52.912;-7.342;2023-02-01T08:09:02;101275.50;;;6.24;100.00
47985;BME280;33753;52.912;-7.342;2023-02-01T08:11:33;101284.31;;;6.26;100.00
47985;BME280;33753;52.912;-7.342;2023-02-01T08:14:03;101282.59;;;6.25;100.00
47985;BME280;33753;52.912;-7.342;2023-02-01T08:16:31;101282.47;;;6.27;100.00
47985;BME280;33753;52.912;-7.342;2023-02-01T08:19:01;101276.00;;;6.29;100.00
47985;BME280;33753;52.912;-7.342;2023-02-01T08:21:31;101290.91;;;6.33;100.00
47985;BME280;33753;52.912;-7.342;2023-02-01T08:24:04;101284.53;;;6.34;100.00
47985;BME280;33753;52.912;-7.342;2023-02-01T08:26:34;101286.13;;;6.37;100.00
47985;BME280;33753;52.912;-7.342;2023-02-01T08:29:03;101283.06;;;6.42;100.00
47985;BME280;33753;52.912;-7.342;2023-02-01T08:31:31;101289.06;;;6.45;100.00
47985;BME280;33753;52.912;-7.342;2023-02-01T08:34:00;101283.41;;;6.48;100.00
47985;BME280;33753;52.912;-7.342;2023-02-01T08:36:30;101297.59;;;6.50;100.00
47985;BME280;33753;52.912;-7.342;2023-02-01T08:38:59;101305.53;;;6.52;100.00
47985;BME280;33753;52.912;-7.342;2023-02-01T08:41:28;101303.81;;;6.51;100.00
47985;BME280;33753;52.912;-7.342;2023-02-01T08:43:58;101309.81;;;6.54;100.00
47985;BME280;33753;52.912;-7.342;2023-02-01T08:46:26;101301.13;;;6.51;100.00
47985;BME280;33753;52.912;-7.342;2023-02-01T08:48:55;101305.28;;;6.55;100.00
47985;BME280;33753;52.912;-7.342;2023-02-01T08:51:23;101306.75;;;6.59;100.00
47985;BME280;33753;52.912;-7.342;2023-02-01T08:53:51;101310.91;;;6.63;100.00
47985;BME280;33753;52.912;-7.342;2023-02-01T08:56:20;101309.31;;;6.61;100.00
47985;BME280;33753;52.912;-7.342;2023-02-01T08:58:48;101302.31;;;6.69;100.00
47985;BME280;33753;52.912;-7.342;2023-02-01T09:01:18;101307.19;;;6.75;100.00
47985;BME280;33753;52.912;-7.342;2023-02-01T09:03:46;101315.13;;;6.77;100.00
47985;BME280;33753;52.912;-7.342;2023-02-01T09:06:14;101305.25;;;6.78;100.00
47985;BME280;33753;52.912;-7.342;2023-02-01T09:08:43;101298.63;;;6.82;100.00
47985;BME280;33753;52.912;-7.342;2023-02-01T09:11:12;101305.25;;;6.78;100.00
47985;BME280;33753;52.912;-7.342;2023-02-01T09:13:41;101312.09;;;6.82;100.00
47985;BME280;33753;52.912;-7.342;2023-02-01T09:16:09;101303.38;;;6.89;100.00
47985;BME280;33753;52.912;-7.342;2023-02-01T09:18:39;101309.09;;;6.96;100.00
47985;BME280;33753;52.912;-7.342;2023-02-01T09:21:21;101314.81;;;7.03;100.00
47985;BME280;33753;52.912;-7.342;2023-02-01T09:23:50;101301.13;;;7.06;100.00
47985;BME280;33753;52.912;-7.342;2023-02-01T09:26:18;101303.31;;;7.12;100.00
47985;BME280;33753;52.912;-7.342;2023-02-01T09:28:56;101319.19;;;7.15;100.00
47985;BME280;33753;52.912;-7.342;2023-02-01T09:31:24;101313.28;;;7.21;100.00
47985;BME280;33753;52.912;-7.342;2023-02-01T09:33:54;101303.97;;;7.25;100.00
47985;BME280;33753;52.912;-7.342;2023-02-01T09:36:23;101313.09;;;7.34;100.00
47985;BME280;33753;52.912;-7.342;2023-02-01T09:38:52;101307.59;;;7.36;100.00
47985;BME280;33753;52.912;-7.342;2023-02-01T09:41:23;101308.47;;;7.36;100.00
47985;BME280;33753;52.912;-7.342;2023-02-01T09:43:56;101309.16;;;7.38;100.00
47985;BME280;33753;52.912;-7.342;2023-02-01T09:46:28;101305.97;;;7.44;100.00
47985;BME280;33753;52.912;-7.342;2023-02-01T09:48:59;101317.81;;;7.53;100.00
47985;BME280;33753;52.912;-7.342;2023-02-01T09:51:30;101305.13;;;7.65;100.00
47985;BME280;33753;52.912;-7.342;2023-02-01T09:54:01;101303.66;;;7.61;100.00
47985;BME280;33753;52.912;-7.342;2023-02-01T09:56:33;101297.88;;;7.66;100.00
47985;BME280;33753;52.912;-7.342;2023-02-01T09:59:04;101306.84;;;7.66;100.00
47985;BME280;33753;52.912;-7.342;2023-02-01T10:01:36;101310.84;;;7.72;100.00
47985;BME280;33753;52.912;-7.342;2023-02-01T10:04:07;101315.22;;;7.73;100.00
47985;BME280;33753;52.912;-7.342;2023-02-01T10:06:39;101301.88;;;7.71;100.00
47985;BME280;33753;52.912;-7.342;2023-02-01T10:09:16;101318.25;;;7.79;100.00
47985;BME280;33753;52.912;-7.342;2023-02-01T10:11:53;101326.78;;;7.85;100.00
47985;BME280;33753;52.912;-7.342;2023-02-01T10:14:35;101330.19;;;7.87;100.00
47985;BME280;33753;52.912;-7.342;2023-02-01T10:17:10;101339.59;;;7.92;100.00
47985;BME280;33753;52.912;-7.342;2023-02-01T10:19:44;101342.88;;;7.96;100.00
47985;BME280;33753;52.912;-7.342;2023-02-01T10:22:17;101341.59;;;8.00;100.00
47985;BME280;33753;52.912;-7.342;2023-02-01T10:25:13;101326.88;;;8.04;100.00
47985;BME280;33753;52.912;-7.342;2023-02-01T10:27:44;101335.25;;;8.01;100.00
47985;BME280;33753;52.912;-7.342;2023-02-01T10:30:16;101337.63;;;7.94;100.00
47985;BME280;33753;52.912;-7.342;2023-02-01T10:32:46;101350.28;;;8.04;100.00
47985;BME280;33753;52.912;-7.342;2023-02-01T10:35:17;101354.97;;;8.02;100.00
47985;BME280;33753;52.912;-7.342;2023-02-01T10:37:46;101364.56;;;7.94;100.00
47985;BME280;33753;52.912;-7.342;2023-02-01T10:40:18;101363.97;;;7.91;100.00
47985;BME280;33753;52.912;-7.342;2023-02-01T10:42:48;101367.97;;;7.96;100.00
47985;BME280;33753;52.912;-7.342;2023-02-01T10:45:18;101366.78;;;7.89;100.00
47985;BME280;33753;52.912;-7.342;2023-02-01T10:47:47;101362.47;;;7.98;100.00
47985;BME280;33753;52.912;-7.342;2023-02-01T10:50:21;101374.41;;;8.05;100.00
47985;BME280;33753;52.912;-7.342;2023-02-01T10:52:54;101379.66;;;8.07;100.00
47985;BME280;33753;52.912;-7.342;2023-02-01T10:55:38;101383.66;;;8.12;100.00
47985;BME280;33753;52.912;-7.342;2023-02-01T10:58:07;101376.88;;;8.18;100.00
47985;BME280;33753;52.912;-7.342;2023-02-01T11:00:43;101377.72;;;8.19;100.00
47985;BME280;33753;52.912;-7.342;2023-02-01T11:06:00;101368.03;;;8.27;100.00
47985;BME280;33753;52.912;-7.342;2023-02-01T11:08:29;101359.97;;;8.37;100.00
47985;BME280;33753;52.912;-7.342;2023-02-01T11:10:58;101356.28;;;8.38;100.00
47985;BME280;33753;52.912;-7.342;2023-02-01T11:13:29;101346.88;;;8.33;100.00
47985;BME280;33753;52.912;-7.342;2023-02-01T11:15:57;101354.78;;;8.45;100.00
47985;BME280;33753;52.912;-7.342;2023-02-01T11:18:27;101351.97;;;8.57;100.00
47985;BME280;33753;52.912;-7.342;2023-02-01T11:20:55;101359.09;;;8.58;100.00
47985;BME280;33753;52.912;-7.342;2023-02-01T11:23:25;101371.19;;;8.63;100.00
47985;BME280;33753;52.912;-7.342;2023-02-01T11:25:55;101362.41;;;8.71;100.00
47985;BME280;33753;52.912;-7.342;2023-02-01T11:28:24;101370.94;;;8.76;100.00
47985;BME280;33753;52.912;-7.342;2023-02-01T11:30:53;101370.09;;;8.86;100.00
47985;BME280;33753;52.912;-7.342;2023-02-01T11:33:25;101363.59;;;8.98;100.00
47985;BME280;33753;52.912;-7.342;2023-02-01T11:35:56;101357.22;;;8.99;100.00
47985;BME280;33753;52.912;-7.342;2023-02-01T11:38:28;101360.47;;;9.03;100.00
47985;BME280;33753;52.912;-7.342;2023-02-01T11:41:10;101347.44;;;9.08;100.00
47985;BME280;33753;52.912;-7.342;2023-02-01T11:43:49;101350.41;;;9.14;100.00
47985;BME280;33753;52.912;-7.342;2023-02-01T11:46:18;101344.16;;;9.04;100.00
47985;BME280;33753;52.912;-7.342;2023-02-01T11:48:52;101344.31;;;9.12;100.00
47985;BME280;33753;52.912;-7.342;2023-02-01T11:51:25;101336.06;;;9.14;100.00
47985;BME280;33753;52.912;-7.342;2023-02-01T11:56:43;101330.97;;;9.21;100.00
47985;BME280;33753;52.912;-7.342;2023-02-01T11:59:22;101334.09;;;9.26;100.00
47985;BME280;33753;52.912;-7.342;2023-02-01T12:02:12;101325.28;;;9.24;100.00
47985;BME280;33753;52.912;-7.342;2023-02-01T12:04:52;101312.22;;;9.29;100.00
47985;BME280;33753;52.912;-7.342;2023-02-01T12:07:26;101307.97;;;9.26;100.00
47985;BME280;33753;52.912;-7.342;2023-02-01T12:10:04;101315.63;;;9.41;100.00
47985;BME280;33753;52.912;-7.342;2023-02-01T12:12:36;101312.63;;;9.54;100.00
47985;BME280;33753;52.912;-7.342;2023-02-01T12:15:12;101318.09;;;9.91;100.00
47985;BME280;33753;52.912;-7.342;2023-02-01T12:17:54;101306.31;;;10.30;100.00
47985;BME280;33753;52.912;-7.342;2023-02-01T12:20:28;101297.94;;;10.61;100.00
47985;BME280;33753;52.912;-7.342;2023-02-01T12:25:58;101295.47;;;11.13;100.00
47985;BME280;33753;52.912;-7.342;2023-02-01T12:34:02;101292.41;;;10.98;100.00
47985;BME280;33753;52.912;-7.342;2023-02-01T12:36:32;101297.22;;;10.86;100.00
47985;BME280;33753;52.912;-7.342;2023-02-01T12:39:07;101299.66;;;10.62;100.00
47985;BME280;33753;52.912;-7.342;2023-02-01T12:41:49;101288.97;;;10.23;100.00
47985;BME280;33753;52.912;-7.342;2023-02-01T12:44:24;101286.34;;;10.03;100.00
47985;BME280;33753;52.912;-7.342;2023-02-01T12:46:54;101294.19;;;9.96;100.00
47985;BME280;33753;52.912;-7.342;2023-02-01T12:49:28;101287.28;;;9.74;100.00
47985;BME280;33753;52.912;-7.342;2023-02-01T12:51:58;101291.25;;;9.70;100.00
47985;BME280;33753;52.912;-7.342;2023-02-01T12:54:30;101290.88;;;9.45;100.00
47985;BME280;33753;52.912;-7.342;2023-02-01T12:57:01;101289.47;;;9.51;100.00
47985;BME280;33753;52.912;-7.342;2023-02-01T12:59:33;101300.41;;;9.49;100.00
47985;BME280;33753;52.912;-7.342;2023-02-01T13:02:05;101288.03;;;9.37;100.00
47985;BME280;33753;52.912;-7.342;2023-02-01T13:04:46;101298.44;;;9.32;100.00
47985;BME280;33753;52.912;-7.342;2023-02-01T13:07:17;101298.00;;;9.27;100.00
47985;BME280;33753;52.912;-7.342;2023-02-01T13:09:47;101297.00;;;9.28;100.00
47985;BME280;33753;52.912;-7.342;2023-02-01T13:12:19;101276.97;;;9.21;100.00
47985;BME280;33753;52.912;-7.342;2023-02-01T13:14:49;101276.97;;;9.21;100.00
47985;BME280;33753;52.912;-7.342;2023-02-01T13:17:22;101263.19;;;9.24;100.00
47985;BME280;33753;52.912;-7.342;2023-02-01T13:19:53;101274.69;;;9.26;100.00